Flight Information

DEPARTURE
BILLINGS, MT
Elevation:
3662
Runways:
10R/28L - 3800x75 - ASPH-G
7/25 - 5501x75 - ASPH-G
10L/28R - 10518x150 - ASPH-G
ATIS:
126.3
Clearance Delivery:
121.9
Ground:
121.9
Tower:
BILLINGS TOWER 127.2
DESTINATION
,
Elevation:
TPA:
1000 (est.)


6168.3 NM76° True-14° Var62° HDG

Flight Plan:
(click to file on line)

1. Type
2. Aircraft Identification
3. Aircraft Type / Special Equipment
4. True Airspeed
kts
5. Departure Airport
(ICAO code)
6. Arriving Airport
(ICAO code)
7. Cruising Altitude
ft
8. Alternate Airport
(ICAO code)
9. Route of Flight
10. Remarks


00:00:00 Departure ATIS: Destination ATIS:

Clearance Limit:
Route:
Altitude: Expect in minutes
Frequency:
Transponder: (7500 Hijack / 7600 Lost Comms / 7700 Emergency)


KBIL 190053Z 33013KT 10SM SCT080 OVC110 01/M03 A3026 RMK AO2 SLP276 T00061028 $
Time: 2021-01-19T00:53:00Z
1611019954
Winds: 330 @ 13 kts
Visibility: 10.0 sm
Clouds (AGL): SCT 8000
OVC 11000
Temperature: 0.6 C
Dew Point: -2.8 C
Pressure: 30.259842 in Hgbr


Notes:

Data extracted from FAA Digital Chart Supplement. Effective: 0901Z Thursday, Dec 31, 2020 to 0901Z Thursday, Jan 28, 2021
Current ATIS data is provided courtisy of PilotEdge.